createdAt,value
2022-08-26T00:01:38.876Z,8.30
2022-08-26T00:04:06.429Z,7.80
2022-08-26T00:06:33.854Z,7.93
2022-08-26T00:09:00.978Z,8.40
2022-08-26T00:11:28.672Z,8.50
2022-08-26T00:13:56.559Z,8.27
2022-08-26T00:16:24.359Z,7.83
2022-08-26T00:18:51.560Z,8.30
2022-08-26T00:21:18.748Z,8.73
2022-08-26T00:23:46.321Z,8.80
2022-08-26T00:26:13.551Z,8.43
2022-08-26T00:28:41.339Z,8.30
2022-08-26T00:31:11.008Z,7.40
2022-08-26T00:33:38.878Z,8.70
2022-08-26T00:36:06.512Z,8.90
2022-08-26T00:38:33.925Z,8.40
2022-08-26T00:41:01.108Z,8.63
2022-08-26T00:43:28.256Z,8.47
2022-08-26T00:45:58.374Z,8.73
2022-08-26T00:48:27.933Z,8.97
2022-08-26T00:51:00.698Z,8.47
2022-08-26T00:53:31.249Z,7.70
2022-08-26T00:56:02.672Z,8.40
2022-08-26T00:58:32.392Z,9.13
2022-08-26T01:01:00.661Z,7.37
2022-08-26T01:03:29.428Z,8.90
2022-08-26T01:05:57.726Z,9.00
2022-08-26T01:08:25.005Z,8.77
2022-08-26T01:10:55.749Z,8.67
2022-08-26T01:13:23.366Z,9.23
2022-08-26T01:15:54.465Z,8.13
2022-08-26T01:18:21.730Z,8.47
2022-08-26T01:20:57.679Z,7.90
2022-08-26T01:23:27.087Z,8.53
2022-08-26T01:25:57.716Z,8.80
2022-08-26T01:28:28.570Z,7.77
2022-08-26T01:30:58.039Z,7.90
2022-08-26T01:33:29.539Z,8.40
2022-08-26T01:35:57.008Z,8.60
2022-08-26T01:38:25.256Z,7.80
2022-08-26T01:40:53.633Z,8.70
2022-08-26T01:43:23.856Z,8.97
2022-08-26T01:45:54.953Z,7.57
2022-08-26T01:48:24.631Z,8.17
2022-08-26T01:50:52.371Z,7.80
2022-08-26T01:53:19.848Z,8.50
2022-08-26T01:55:49.558Z,7.70
2022-08-26T01:58:23.477Z,7.90
2022-08-26T02:00:51.362Z,8.80
2022-08-26T02:03:19.046Z,8.50
2022-08-26T02:05:57.386Z,7.53
2022-08-26T02:08:27.141Z,8.13
2022-08-26T02:10:55.277Z,8.43
2022-08-26T02:13:23.754Z,8.00
2022-08-26T02:15:52.260Z,8.03
2022-08-26T02:18:20.017Z,9.30
2022-08-26T02:20:47.204Z,9.00
2022-08-26T02:23:18.784Z,8.43
2022-08-26T02:25:52.639Z,8.20
2022-08-26T02:28:19.978Z,7.60
2022-08-26T02:30:47.906Z,8.03
2022-08-26T02:33:15.062Z,8.00
2022-08-26T02:35:42.224Z,7.90
2022-08-26T02:38:11.096Z,8.80
2022-08-26T02:40:40.904Z,9.30
2022-08-26T02:43:09.637Z,7.80
2022-08-26T02:45:37.066Z,9.77
2022-08-26T02:48:09.183Z,8.13
2022-08-26T02:50:37.536Z,8.20
2022-08-26T02:53:06.998Z,7.93
2022-08-26T02:55:34.350Z,8.47
2022-08-26T02:58:01.564Z,8.37
2022-08-26T03:00:30.382Z,7.60
2022-08-26T03:02:58.123Z,8.53
2022-08-26T03:05:25.813Z,8.43
2022-08-26T03:07:53.285Z,8.27
2022-08-26T03:10:21.446Z,7.47
2022-08-26T03:12:48.953Z,8.77
2022-08-26T03:15:17.903Z,8.60
2022-08-26T03:17:46.267Z,7.97
2022-08-26T03:20:13.790Z,7.90
2022-08-26T03:22:42.935Z,7.70
2022-08-26T03:25:11.387Z,7.53
2022-08-26T03:27:38.684Z,8.00
2022-08-26T03:30:25.199Z,9.10
2022-08-26T03:32:53.848Z,7.57
2022-08-26T03:35:22.389Z,8.47
2022-08-26T03:37:49.718Z,7.90
2022-08-26T03:40:20.272Z,9.00
2022-08-26T03:42:48.101Z,8.50
2022-08-26T03:45:16.579Z,8.70
2022-08-26T03:47:44.608Z,8.33
2022-08-26T03:50:12.951Z,7.70
2022-08-26T03:52:43.695Z,7.20
2022-08-26T03:55:11.933Z,8.40
2022-08-26T03:57:39.336Z,7.90
2022-08-26T04:00:07.970Z,8.37
2022-08-26T04:02:35.239Z,8.73
2022-08-26T04:05:03.110Z,8.80
2022-08-26T04:07:31.939Z,8.13
2022-08-26T04:09:59.302Z,9.40
2022-08-26T04:12:26.890Z,7.60
2022-08-26T04:14:54.179Z,9.20
2022-08-26T04:17:25.984Z,7.87
2022-08-26T04:19:54.092Z,9.03
2022-08-26T04:22:24.193Z,8.37
2022-08-26T04:24:52.236Z,8.57
2022-08-26T04:27:19.468Z,9.17
2022-08-26T04:29:47.947Z,7.57
2022-08-26T04:32:16.568Z,10.00
2022-08-26T04:34:44.875Z,8.30
2022-08-26T04:37:13.234Z,8.93
2022-08-26T04:39:40.865Z,8.90
2022-08-26T04:42:08.041Z,8.23
2022-08-26T04:44:36.880Z,8.30
2022-08-26T04:47:04.665Z,8.27
2022-08-26T04:49:35.426Z,8.50
2022-08-26T04:52:03.183Z,8.40
2022-08-26T04:54:32.072Z,8.00
2022-08-26T04:56:59.690Z,7.80
2022-08-26T04:59:26.973Z,9.13
2022-08-26T05:01:57.329Z,7.60
2022-08-26T05:04:25.675Z,9.07
2022-08-26T05:06:54.842Z,8.20
2022-08-26T05:09:25.429Z,7.80
2022-08-26T05:11:52.555Z,8.20
2022-08-26T05:14:20.320Z,10.00
2022-08-26T05:16:47.863Z,8.17
2022-08-26T05:19:17.228Z,7.90
2022-08-26T05:21:46.315Z,7.70
2022-08-26T05:24:14.429Z,7.07
2022-08-26T05:26:41.692Z,7.40
2022-08-26T05:29:11.666Z,8.33
2022-08-26T05:31:38.873Z,8.13
2022-08-26T05:34:06.106Z,8.10
2022-08-26T05:36:35.071Z,7.17
2022-08-26T05:39:03.358Z,7.80
2022-08-26T05:41:34.410Z,7.23
2022-08-26T05:44:05.417Z,7.63
2022-08-26T05:46:32.895Z,7.97
2022-08-26T05:49:02.072Z,7.33
2022-08-26T05:51:31.014Z,6.80
2022-08-26T05:53:58.397Z,7.77
2022-08-26T05:56:27.644Z,7.70
2022-08-26T05:58:56.153Z,8.40
2022-08-26T06:01:26.751Z,7.60
2022-08-26T06:03:56.460Z,7.80
2022-08-26T06:06:28.335Z,7.70
2022-08-26T06:08:59.198Z,7.33
2022-08-26T06:11:27.199Z,7.90
2022-08-26T06:13:57.907Z,7.53
2022-08-26T06:16:27.636Z,8.03
2022-08-26T06:18:55.035Z,8.30
2022-08-26T06:21:27.005Z,6.80
2022-08-26T06:24:14.839Z,7.20
2022-08-26T06:26:42.980Z,7.63
2022-08-26T06:29:16.414Z,6.87
2022-08-26T06:31:52.202Z,8.80
2022-08-26T06:34:19.422Z,8.53
2022-08-26T06:36:47.313Z,7.53
2022-08-26T06:39:15.622Z,7.57
2022-08-26T06:41:45.020Z,6.60
2022-08-26T06:44:14.835Z,8.50
2022-08-26T06:46:43.193Z,9.07
2022-08-26T06:49:12.879Z,9.20
2022-08-26T06:51:40.834Z,7.73
2022-08-26T06:54:08.547Z,8.67
2022-08-26T06:56:41.818Z,8.73
2022-08-26T06:59:12.353Z,7.50
2022-08-26T07:01:45.111Z,7.10
2022-08-26T07:04:15.454Z,7.90
2022-08-26T07:06:50.091Z,7.63
2022-08-26T07:09:21.424Z,7.47
2022-08-26T07:11:49.190Z,7.63
2022-08-26T07:14:19.326Z,7.90
2022-08-26T07:16:48.600Z,8.10
2022-08-26T07:19:16.218Z,7.40
2022-08-26T07:21:44.558Z,6.60
2022-08-26T07:24:11.467Z,6.37
2022-08-26T07:26:39.074Z,7.07
2022-08-26T07:29:12.382Z,6.30
2022-08-26T07:31:42.419Z,6.40
2022-08-26T07:34:10.852Z,5.97
2022-08-26T07:36:38.050Z,6.70
2022-08-26T07:39:05.802Z,7.10
2022-08-26T07:41:33.527Z,5.53
2022-08-26T07:44:01.207Z,6.47
2022-08-26T07:46:30.216Z,5.35
2022-08-26T07:48:58.301Z,5.60
2022-08-26T07:51:26.061Z,5.45
2022-08-26T07:53:54.273Z,4.85
2022-08-26T07:56:23.101Z,5.30
2022-08-26T07:58:51.965Z,4.75
2022-08-26T08:01:20.549Z,5.75
2022-08-26T08:03:51.360Z,5.75
2022-08-26T08:06:19.483Z,5.30
2022-08-26T08:08:47.214Z,5.10
2022-08-26T08:11:14.718Z,4.97
2022-08-26T08:13:42.134Z,5.60
2022-08-26T08:16:12.724Z,5.13
2022-08-26T08:18:40.487Z,4.82
2022-08-26T08:21:24.002Z,4.78
2022-08-26T08:23:55.457Z,4.78
2022-08-26T08:26:24.381Z,5.25
2022-08-26T08:28:54.174Z,4.43
2022-08-26T08:31:55.780Z,5.10
2022-08-26T08:34:15.850Z,4.45
2022-08-26T08:36:46.371Z,5.35
2022-08-26T08:39:13.600Z,4.28
2022-08-26T08:42:08.992Z,5.05
2022-08-26T08:44:39.676Z,4.65
2022-08-26T08:47:17.343Z,4.85
2022-08-26T08:49:44.704Z,6.00
2022-08-26T08:52:24.706Z,6.70
2022-08-26T08:54:55.345Z,5.60
2022-08-26T08:58:02.134Z,5.45
2022-08-26T09:00:44.878Z,5.53
2022-08-26T09:03:18.097Z,5.97
2022-08-26T09:05:48.868Z,5.47
2022-08-26T09:08:24.835Z,5.65
2022-08-26T09:10:55.528Z,5.82
2022-08-26T09:13:25.280Z,5.82
2022-08-26T09:15:53.114Z,5.97
2022-08-26T09:18:27.484Z,5.43
2022-08-26T09:20:54.308Z,5.40
2022-08-26T09:23:21.072Z,5.82
2022-08-26T09:25:51.284Z,5.57
2022-08-26T09:28:21.710Z,4.88
2022-08-26T09:31:11.528Z,6.00
2022-08-26T09:33:40.108Z,5.78
2022-08-26T09:36:31.414Z,5.10
2022-08-26T09:38:58.498Z,6.20
2022-08-26T09:41:31.850Z,5.97
2022-08-26T09:44:04.510Z,5.28
2022-08-26T09:46:32.230Z,5.30
2022-08-26T09:49:27.074Z,4.63
2022-08-26T09:52:07.358Z,5.50
2022-08-26T09:54:34.942Z,6.22
2022-08-26T09:57:16.641Z,5.13
2022-08-26T09:59:44.039Z,4.75
2022-08-26T10:02:31.864Z,5.22
2022-08-26T10:05:09.226Z,5.47
2022-08-26T10:07:47.068Z,5.40
2022-08-26T10:10:35.277Z,5.88
2022-08-26T10:13:12.410Z,4.95
2022-08-26T10:16:01.345Z,4.90
2022-08-26T10:18:41.935Z,5.93
2022-08-26T10:21:23.612Z,5.60
2022-08-26T10:23:52.962Z,5.95
2022-08-26T10:26:24.893Z,5.72
2022-08-26T10:29:14.836Z,5.65
2022-08-26T10:31:42.071Z,6.00
2022-08-26T10:34:09.609Z,5.68
2022-08-26T10:40:00.648Z,6.22
2022-08-26T10:42:38.197Z,6.43
2022-08-26T10:45:11.906Z,6.37
2022-08-26T10:47:52.695Z,6.13
2022-08-26T10:50:22.259Z,6.83
2022-08-26T10:53:00.456Z,6.17
2022-08-26T10:55:54.640Z,5.73
2022-08-26T10:58:26.153Z,6.60
2022-08-26T11:01:22.897Z,5.53
2022-08-26T11:03:50.066Z,5.73
2022-08-26T11:06:19.497Z,5.73
2022-08-26T11:08:51.165Z,6.20
2022-08-26T11:11:41.695Z,6.10
2022-08-26T11:14:28.547Z,6.13
2022-08-26T11:16:58.665Z,6.50
2022-08-26T11:19:59.732Z,6.27
2022-08-26T11:22:35.514Z,5.87
2022-08-26T11:25:09.562Z,6.80
2022-08-26T11:27:38.889Z,6.30
2022-08-26T11:30:18.474Z,7.17
2022-08-26T11:32:52.211Z,6.40
2022-08-26T11:35:21.836Z,6.50
2022-08-26T11:37:56.618Z,6.07
2022-08-26T11:40:35.345Z,6.20
2022-08-26T11:43:10.088Z,6.57
2022-08-26T11:45:45.628Z,6.53
2022-08-26T11:48:36.613Z,6.77
2022-08-26T11:51:21.332Z,6.83
2022-08-26T11:53:49.127Z,6.47
2022-08-26T11:56:36.652Z,5.10
2022-08-26T11:59:10.022Z,6.60
2022-08-26T12:01:40.334Z,5.67
2022-08-26T12:04:08.961Z,5.80
2022-08-26T12:06:45.232Z,6.20
2022-08-26T12:09:22.062Z,6.37
2022-08-26T12:11:48.916Z,5.67
2022-08-26T12:14:24.528Z,5.70
2022-08-26T12:16:54.073Z,5.20
2022-08-26T12:19:32.659Z,5.90
2022-08-26T12:22:07.444Z,5.20
2022-08-26T12:24:35.126Z,5.47
2022-08-26T12:27:27.268Z,5.90
2022-08-26T12:30:08.366Z,6.03
2022-08-26T12:32:37.278Z,5.37
2022-08-26T12:35:24.034Z,6.50
2022-08-26T12:37:53.896Z,5.03
2022-08-26T12:40:26.724Z,5.80
2022-08-26T12:42:54.120Z,5.83
2022-08-26T12:45:36.722Z,6.63
2022-08-26T12:48:28.651Z,5.77
2022-08-26T12:50:56.188Z,6.37
2022-08-26T12:53:24.264Z,6.03
2022-08-26T12:55:55.500Z,6.23
2022-08-26T12:58:24.315Z,5.93
2022-08-26T13:00:52.436Z,5.57
2022-08-26T13:03:43.490Z,6.10
2022-08-26T13:06:15.448Z,5.53
2022-08-26T13:08:48.194Z,4.77
2022-08-26T13:11:20.098Z,5.93
2022-08-26T13:14:00.064Z,4.90
2022-08-26T13:16:27.146Z,4.70
2022-08-26T13:19:03.386Z,5.30
2022-08-26T13:21:41.150Z,5.57
2022-08-26T13:24:11.784Z,5.43
2022-08-26T13:26:42.747Z,5.20
2022-08-26T13:29:10.664Z,5.90
2022-08-26T13:31:40.089Z,5.83
2022-08-26T13:34:09.263Z,5.40
2022-08-26T13:36:36.127Z,5.63
2022-08-26T13:39:03.267Z,5.50
2022-08-26T13:41:32.075Z,5.23
2022-08-26T13:43:59.633Z,5.17
2022-08-26T13:46:28.141Z,5.07
2022-08-26T13:48:55.995Z,4.77
2022-08-26T13:51:23.959Z,5.30
2022-08-26T13:53:51.561Z,5.43
2022-08-26T13:56:18.878Z,5.20
2022-08-26T13:58:46.630Z,5.33
2022-08-26T14:01:15.707Z,5.50
2022-08-26T14:03:43.634Z,4.67
2022-08-26T14:06:10.977Z,5.00
2022-08-26T14:08:39.521Z,4.30
2022-08-26T14:11:07.035Z,6.00
2022-08-26T14:13:34.532Z,5.13
2022-08-26T14:16:03.876Z,5.77
2022-08-26T14:18:41.143Z,5.27
2022-08-26T14:21:11.302Z,5.47
2022-08-26T14:23:38.207Z,5.67
2022-08-26T14:26:08.269Z,5.80
2022-08-26T14:28:36.225Z,5.50
2022-08-26T14:31:04.205Z,5.67
2022-08-26T14:33:33.930Z,4.90
2022-08-26T14:36:32.899Z,5.07
2022-08-26T14:39:10.326Z,6.47
2022-08-26T14:41:43.768Z,5.60
2022-08-26T14:44:13.807Z,5.60
2022-08-26T14:46:51.176Z,5.83
2022-08-26T14:49:18.856Z,5.83
2022-08-26T14:51:45.990Z,4.90
2022-08-26T14:54:14.027Z,5.10
2022-08-26T14:56:53.970Z,5.57
2022-08-26T14:59:25.138Z,5.67
2022-08-26T15:01:53.131Z,5.30
2022-08-26T15:04:20.455Z,6.57
2022-08-26T15:06:47.797Z,4.93
2022-08-26T15:09:15.760Z,5.50
2022-08-26T15:11:47.632Z,4.97
2022-08-26T15:14:19.574Z,5.83
2022-08-26T15:16:52.532Z,4.90
2022-08-26T15:19:20.291Z,5.90
2022-08-26T15:21:47.502Z,5.17
2022-08-26T15:24:16.876Z,5.53
2022-08-26T15:26:44.652Z,5.40
2022-08-26T15:29:11.533Z,6.67
2022-08-26T15:31:38.680Z,5.47
2022-08-26T15:34:10.998Z,5.20
2022-08-26T15:36:40.763Z,5.57
2022-08-26T15:39:07.954Z,5.40
2022-08-26T15:41:36.291Z,4.90
2022-08-26T15:44:04.885Z,6.30
2022-08-26T15:46:32.106Z,6.57
2022-08-26T15:48:59.368Z,6.13
2022-08-26T15:51:28.130Z,4.80
2022-08-26T15:53:56.399Z,4.77
2022-08-26T15:56:29.158Z,5.87
2022-08-26T15:58:56.709Z,4.60
2022-08-26T16:01:27.604Z,5.87
2022-08-26T16:03:56.210Z,5.43
2022-08-26T16:06:28.200Z,5.80
2022-08-26T16:08:56.463Z,5.90
2022-08-26T16:11:24.369Z,5.67
2022-08-26T16:13:51.743Z,5.13
2022-08-26T16:16:19.058Z,5.67
2022-08-26T16:18:45.969Z,6.30
2022-08-26T16:21:17.936Z,5.00
2022-08-26T16:23:45.247Z,5.83
2022-08-26T16:26:19.069Z,5.20
2022-08-26T16:28:46.435Z,5.30
2022-08-26T16:31:14.333Z,5.33
2022-08-26T16:33:41.323Z,5.23
2022-08-26T16:36:09.780Z,5.27
2022-08-26T16:38:38.491Z,5.73
2022-08-26T16:41:06.235Z,4.90
2022-08-26T16:43:33.261Z,5.60
2022-08-26T16:46:00.055Z,5.40
2022-08-26T16:48:27.850Z,6.10
2022-08-26T16:50:55.628Z,5.50
2022-08-26T16:53:22.780Z,5.70
2022-08-26T16:55:51.042Z,6.17
2022-08-26T16:58:20.399Z,5.07
2022-08-26T17:00:49.275Z,5.87
2022-08-26T17:03:15.994Z,5.10
2022-08-26T17:05:42.771Z,5.37
2022-08-26T17:08:09.729Z,5.43
2022-08-26T17:10:36.548Z,5.37
2022-08-26T17:13:03.503Z,5.97
2022-08-26T17:15:30.402Z,5.40
2022-08-26T17:17:57.309Z,5.93
2022-08-26T17:20:24.953Z,5.73
2022-08-26T17:22:54.413Z,5.10
2022-08-26T17:25:31.935Z,5.50
2022-08-26T17:27:59.568Z,5.80
2022-08-26T17:30:26.547Z,5.77
2022-08-26T17:32:54.464Z,6.10
2022-08-26T17:35:21.727Z,5.90
2022-08-26T17:37:48.911Z,4.87
2022-08-26T17:40:25.895Z,5.67
2022-08-26T17:42:53.927Z,5.60
2022-08-26T17:45:21.700Z,5.20
2022-08-26T17:47:48.743Z,6.57
2022-08-26T17:50:17.594Z,6.00
2022-08-26T17:52:45.787Z,7.10
2022-08-26T17:55:16.825Z,6.23
2022-08-26T17:57:44.037Z,6.37
2022-08-26T18:00:23.579Z,5.80
2022-08-26T18:02:50.298Z,6.00
2022-08-26T18:05:17.733Z,6.57
2022-08-26T18:07:44.907Z,6.13
2022-08-26T18:10:13.954Z,6.80
2022-08-26T18:12:41.573Z,6.83
2022-08-26T18:15:09.545Z,6.60
2022-08-26T18:17:37.275Z,5.80
2022-08-26T18:20:04.361Z,6.50
2022-08-26T18:22:31.140Z,6.20
2022-08-26T18:24:59.405Z,5.80
2022-08-26T18:27:26.476Z,5.90
2022-08-26T18:29:53.191Z,5.90
2022-08-26T18:32:19.951Z,6.20
2022-08-26T18:34:46.683Z,6.67
2022-08-26T18:39:45.634Z,6.50
2022-08-26T18:42:12.892Z,7.00
2022-08-26T18:44:39.787Z,6.57
2022-08-26T18:47:06.813Z,6.40
2022-08-26T18:49:33.536Z,7.73
2022-08-26T18:52:00.349Z,6.53
2022-08-26T18:54:27.238Z,6.77
2022-08-26T18:56:53.949Z,7.30
2022-08-26T18:59:28.421Z,7.53
2022-08-26T19:01:57.843Z,7.23
2022-08-26T19:04:24.828Z,8.10
2022-08-26T19:06:52.557Z,8.40
2022-08-26T19:09:20.944Z,7.23
2022-08-26T19:11:48.813Z,8.30
2022-08-26T19:14:17.188Z,7.47
2022-08-26T19:16:49.080Z,8.80
2022-08-26T19:19:16.264Z,7.93
2022-08-26T19:21:43.010Z,7.77
2022-08-26T19:24:15.484Z,8.60
2022-08-26T19:26:57.468Z,7.47
2022-08-26T19:29:28.751Z,7.90
2022-08-26T19:31:56.422Z,9.67
2022-08-26T19:34:24.086Z,7.87
2022-08-26T19:36:54.676Z,8.67
2022-08-26T19:39:21.829Z,8.40
2022-08-26T19:41:48.656Z,8.00
2022-08-26T19:44:39.164Z,8.67
2022-08-26T19:47:07.543Z,8.50
2022-08-26T19:49:34.902Z,9.10
2022-08-26T19:52:02.997Z,7.67
2022-08-26T19:54:29.920Z,8.93
2022-08-26T19:56:57.348Z,9.20
2022-08-26T19:59:24.287Z,9.00
2022-08-26T20:02:00.584Z,8.77
2022-08-26T20:04:29.662Z,8.40
2022-08-26T20:06:58.757Z,9.00
2022-08-26T20:09:31.514Z,8.17
2022-08-26T20:11:58.784Z,8.40
2022-08-26T20:14:27.041Z,8.90
2022-08-26T20:16:54.084Z,8.20
2022-08-26T20:19:39.375Z,8.77
2022-08-26T20:22:06.388Z,8.10
2022-08-26T20:24:34.261Z,9.07
2022-08-26T20:27:05.486Z,9.00
2022-08-26T20:29:35.056Z,9.07
2022-08-26T20:32:02.599Z,9.70
2022-08-26T20:34:30.083Z,9.63
2022-08-26T20:36:56.868Z,9.63
2022-08-26T20:39:23.667Z,9.10
2022-08-26T20:41:50.791Z,9.67
2022-08-26T20:44:17.828Z,9.97
2022-08-26T20:46:45.052Z,11.63
2022-08-26T20:49:13.152Z,10.10
2022-08-26T20:51:40.410Z,9.63
2022-08-26T20:54:07.364Z,9.77
2022-08-26T20:56:34.465Z,9.10
2022-08-26T20:59:01.769Z,10.77
2022-08-26T21:01:34.454Z,11.50
2022-08-26T21:04:04.343Z,9.83
2022-08-26T21:06:32.615Z,9.60
2022-08-26T21:09:01.381Z,9.57
2022-08-26T21:11:29.193Z,10.00
2022-08-26T21:14:16.182Z,10.10
2022-08-26T21:16:43.970Z,10.03
2022-08-26T21:19:12.848Z,8.93
2022-08-26T21:21:40.809Z,9.53
2022-08-26T21:24:07.875Z,10.77
2022-08-26T21:26:34.767Z,10.50
2022-08-26T21:29:02.470Z,9.10
2022-08-26T21:31:31.736Z,9.67
2022-08-26T21:33:59.262Z,9.50
2022-08-26T21:36:26.558Z,9.30
2022-08-26T21:38:56.728Z,9.77
2022-08-26T21:41:24.184Z,9.53
2022-08-26T21:43:53.873Z,8.67
2022-08-26T21:46:23.207Z,10.00
2022-08-26T21:48:55.729Z,10.00
2022-08-26T21:51:24.707Z,9.63
2022-08-26T21:53:54.799Z,9.23
2022-08-26T21:56:26.175Z,8.50
2022-08-26T21:58:54.946Z,8.97
2022-08-26T22:01:23.655Z,7.43
2022-08-26T22:03:52.567Z,7.73
2022-08-26T22:06:22.282Z,8.17
2022-08-26T22:08:49.218Z,7.40
2022-08-26T22:11:16.328Z,8.07
2022-08-26T22:13:43.581Z,8.20
2022-08-26T22:16:11.324Z,7.10
2022-08-26T22:18:39.087Z,7.27
2022-08-26T22:21:10.359Z,6.93
2022-08-26T22:23:38.238Z,6.60
2022-08-26T22:26:06.913Z,7.13
2022-08-26T22:28:33.867Z,6.90
2022-08-26T22:31:01.799Z,6.57
2022-08-26T22:33:29.315Z,6.60
2022-08-26T22:35:56.278Z,6.30
2022-08-26T22:38:23.864Z,6.40
2022-08-26T22:40:56.865Z,6.80
2022-08-26T22:43:25.067Z,6.10
2022-08-26T22:45:53.067Z,5.90
2022-08-26T22:48:22.810Z,6.37
2022-08-26T22:50:50.996Z,6.27
2022-08-26T22:53:18.421Z,6.07
2022-08-26T22:55:45.697Z,5.97
2022-08-26T22:58:15.579Z,5.97
2022-08-26T23:00:43.570Z,6.33
2022-08-26T23:03:12.043Z,6.00
2022-08-26T23:05:40.167Z,6.53
2022-08-26T23:08:07.686Z,5.63
2022-08-26T23:10:36.744Z,5.90
2022-08-26T23:13:08.119Z,5.37
2022-08-26T23:15:35.837Z,5.83
2022-08-26T23:18:03.630Z,6.53
2022-08-26T23:20:31.285Z,5.93
2022-08-26T23:22:58.841Z,5.70
2022-08-26T23:25:26.005Z,6.10
2022-08-26T23:27:52.954Z,5.50
2022-08-26T23:30:23.648Z,6.33
2022-08-26T23:32:51.040Z,6.47
2022-08-26T23:35:20.492Z,5.53
2022-08-26T23:37:53.557Z,5.80
2022-08-26T23:40:25.221Z,5.80
2022-08-26T23:42:56.967Z,5.50
2022-08-26T23:45:24.083Z,5.60
2022-08-26T23:47:51.115Z,5.40
2022-08-26T23:50:20.583Z,5.60
2022-08-26T23:53:05.865Z,5.90
2022-08-26T23:55:39.434Z,5.30
2022-08-26T23:58:06.941Z,5.83
